Time;durP1;ratioP1;P1;durP2;ratioP2;P2;SDS_P1;SDS_P2;PMS_P1;PMS_P2;Temp;Humidity;BMP_temperature;BMP_pressure;BME280_temperature;BME280_humidity;BME280_pressure;Samples;Min_cycle;Max_cycle;Signal;HPM_P1;HPM_P2
2023/08/01 00:00:25;;;;;;;20.37;4.70;;;;;;;;;;6155688;23;20039;-45
2023/08/01 00:02:52;;;;;;;17.30;6.00;;;;;;;;;;6161227;23;20017;-44
2023/08/01 00:05:21;;;;;;;22.73;5.10;;;;;;;;;;6139623;23;20013;-43
2023/08/01 00:07:48;;;;;;;19.83;4.93;;;;;;;;;;6154916;23;20017;-45
2023/08/01 00:10:16;;;;;;;16.83;4.70;;;;;;;;;;6152563;23;20095;-43
2023/08/01 00:12:44;;;;;;;20.60;5.13;;;;;;;;;;6154721;23;20029;-43
2023/08/01 00:15:12;;;;;;;19.00;5.07;;;;;;;;;;6156923;23;20432;-43
2023/08/01 00:17:41;;;;;;;20.60;4.85;;;;;;;;;;6151778;23;20432;-43
2023/08/01 00:20:09;;;;;;;23.20;4.38;;;;;;;;;;6143311;23;20349;-43
2023/08/01 00:22:37;;;;;;;16.88;4.32;;;;;;;;;;6160433;23;20017;-44
2023/08/01 00:25:05;;;;;;;17.97;5.23;;;;;;;;;;6151301;23;20121;-44
2023/08/01 00:27:33;;;;;;;16.95;5.00;;;;;;;;;;6158964;23;20021;-46
2023/08/01 00:30:07;;;;;;;21.95;4.88;;;;;;;;;;6140421;23;20357;-45
2023/08/01 00:32:35;;;;;;;21.10;4.38;;;;;;;;;;6153664;23;20174;-46
2023/08/01 00:35:05;;;;;;;20.02;5.07;;;;;;;;;;6146610;23;20046;-43
2023/08/01 00:37:33;;;;;;;20.20;5.00;;;;;;;;;;6158891;23;20526;-43
2023/08/01 00:40:01;;;;;;;22.08;4.50;;;;;;;;;;6149593;23;20311;-45
2023/08/01 00:42:29;;;;;;;22.95;5.60;;;;;;;;;;6160036;23;20044;-44
2023/08/01 00:44:56;;;;;;;19.48;5.32;;;;;;;;;;6144845;23;20756;-43
2023/08/01 00:47:24;;;;;;;23.15;4.88;;;;;;;;;;6161048;23;20339;-43
2023/08/01 00:49:52;;;;;;;22.13;4.70;;;;;;;;;;6154062;23;20052;-44
2023/08/01 00:52:21;;;;;;;22.45;5.13;;;;;;;;;;6160561;23;20017;-44
2023/08/01 00:54:49;;;;;;;25.35;5.57;;;;;;;;;;6145723;23;20028;-45
2023/08/01 00:57:17;;;;;;;21.00;5.05;;;;;;;;;;6155976;23;20021;-43
2023/08/01 00:59:44;;;;;;;17.30;5.00;;;;;;;;;;6148190;23;20167;-44
2023/08/01 01:02:12;;;;;;;19.87;5.20;;;;;;;;;;6162143;23;20019;-43
2023/08/01 01:04:40;;;;;;;21.13;5.90;;;;;;;;;;6145774;23;20666;-43
2023/08/01 01:07:08;;;;;;;18.08;4.53;;;;;;;;;;6157915;23;20095;-43
2023/08/01 01:09:37;;;;;;;24.13;4.85;;;;;;;;;;6150414;23;20597;-43
2023/08/01 01:12:05;;;;;;;23.15;4.75;;;;;;;;;;6165263;23;20023;-43
2023/08/01 01:14:32;;;;;;;26.47;4.93;;;;;;;;;;6150243;23;20095;-49
2023/08/01 01:17:00;;;;;;;19.05;5.22;;;;;;;;;;6156190;23;20108;-43
2023/08/01 01:19:28;;;;;;;14.52;4.15;;;;;;;;;;6162053;23;20024;-43
2023/08/01 01:21:57;;;;;;;16.50;4.97;;;;;;;;;;6149293;23;20021;-44
2023/08/01 01:24:28;;;;;;;20.55;4.70;;;;;;;;;;6134271;23;20032;-43
2023/08/01 01:26:59;;;;;;;22.30;4.50;;;;;;;;;;6154795;23;20067;-44
2023/08/01 01:29:28;;;;;;;18.92;4.63;;;;;;;;;;6156705;23;20013;-46
2023/08/01 01:31:56;;;;;;;21.58;4.97;;;;;;;;;;6154352;23;20021;-44
2023/08/01 01:34:24;;;;;;;16.75;5.07;;;;;;;;;;6146181;23;20021;-46
2023/08/01 01:36:51;;;;;;;24.27;5.53;;;;;;;;;;6162727;23;20017;-43
2023/08/01 01:39:21;;;;;;;19.50;4.87;;;;;;;;;;6145741;23;20494;-43
2023/08/01 01:41:48;;;;;;;23.55;5.72;;;;;;;;;;6160963;23;20013;-45
2023/08/01 01:44:16;;;;;;;18.00;4.55;;;;;;;;;;6150927;23;20604;-43
2023/08/01 01:46:44;;;;;;;21.48;5.70;;;;;;;;;;6159554;23;20622;-45
2023/08/01 01:49:12;;;;;;;21.70;6.05;;;;;;;;;;6155476;23;20020;-43
2023/08/01 01:51:40;;;;;;;18.60;5.00;;;;;;;;;;6164971;23;20027;-43
2023/08/01 01:54:07;;;;;;;21.25;5.07;;;;;;;;;;6153671;23;20029;-43
2023/08/01 01:56:36;;;;;;;19.33;5.32;;;;;;;;;;6158881;23;20131;-43
2023/08/01 01:59:04;;;;;;;21.98;5.25;;;;;;;;;;6141639;23;20043;-43
2023/08/01 02:01:33;;;;;;;15.30;3.75;;;;;;;;;;6165330;23;20100;-44
2023/08/01 02:04:00;;;;;;;19.00;5.07;;;;;;;;;;6126031;23;20092;-44
2023/08/01 02:06:28;;;;;;;16.23;4.93;;;;;;;;;;6167190;23;20023;-44
2023/08/01 02:08:56;;;;;;;20.17;5.72;;;;;;;;;;6160129;23;20120;-44
2023/08/01 02:11:23;;;;;;;17.77;5.43;;;;;;;;;;6161175;23;20092;-43
2023/08/01 02:13:52;;;;;;;17.83;4.60;;;;;;;;;;6162011;23;20024;-44
2023/08/01 02:16:20;;;;;;;20.30;4.60;;;;;;;;;;6158293;23;20431;-43
2023/08/01 02:18:48;;;;;;;18.08;4.97;;;;;;;;;;6160035;23;20306;-45
2023/08/01 02:21:16;;;;;;;14.32;4.55;;;;;;;;;;6162385;23;20024;-43
2023/08/01 02:23:43;;;;;;;14.93;4.00;;;;;;;;;;6164594;23;20023;-43
2023/08/01 02:26:11;;;;;;;17.85;5.03;;;;;;;;;;6133087;23;20014;-43
2023/08/01 02:28:39;;;;;;;14.63;4.33;;;;;;;;;;6145027;23;20017;-43
2023/08/01 02:31:08;;;;;;;14.88;3.90;;;;;;;;;;6162659;23;20150;-43
2023/08/01 02:33:36;;;;;;;13.48;4.10;;;;;;;;;;6157506;23;20687;-43
2023/08/01 02:36:04;;;;;;;20.50;4.43;;;;;;;;;;6163999;23;20114;-43
2023/08/01 02:38:31;;;;;;;15.35;4.28;;;;;;;;;;6152589;23;20024;-46
2023/08/01 02:40:59;;;;;;;14.13;4.13;;;;;;;;;;6160479;23;20021;-46
2023/08/01 02:43:27;;;;;;;17.65;4.20;;;;;;;;;;6159806;23;20652;-45
2023/08/01 02:45:54;;;;;;;17.02;4.65;;;;;;;;;;6156977;23;20017;-43
2023/08/01 02:48:26;;;;;;;14.13;4.32;;;;;;;;;;6165470;23;20017;-44
2023/08/01 02:50:54;;;;;;;13.02;3.85;;;;;;;;;;6164405;23;20013;-44
2023/08/01 02:53:22;;;;;;;16.53;4.33;;;;;;;;;;6153172;23;20020;-46
2023/08/01 02:55:49;;;;;;;14.77;4.22;;;;;;;;;;6162012;23;20017;-44
2023/08/01 02:58:17;;;;;;;21.63;4.95;;;;;;;;;;6146689;23;20072;-45
2023/08/01 03:00:45;;;;;;;14.10;3.90;;;;;;;;;;6158523;23;20012;-43
2023/08/01 03:03:12;;;;;;;13.75;3.47;;;;;;;;;;6157244;23;20360;-43
2023/08/01 03:05:42;;;;;;;10.67;3.00;;;;;;;;;;6156812;23;20124;-43
2023/08/01 03:08:10;;;;;;;17.63;3.70;;;;;;;;;;6162168;23;20096;-46
2023/08/01 03:10:37;;;;;;;13.32;3.05;;;;;;;;;;6151651;23;20489;-46
2023/08/01 03:13:05;;;;;;;16.02;3.17;;;;;;;;;;6162765;23;20245;-44
2023/08/01 03:15:33;;;;;;;13.35;2.53;;;;;;;;;;6156773;23;20262;-44
2023/08/01 03:18:01;;;;;;;12.83;2.57;;;;;;;;;;6163743;23;20021;-44
2023/08/01 03:20:29;;;;;;;11.18;2.60;;;;;;;;;;6156768;23;20012;-47
2023/08/01 03:22:58;;;;;;;10.57;2.10;;;;;;;;;;6164596;23;20023;-45
2023/08/01 03:25:27;;;;;;;11.05;2.67;;;;;;;;;;6153721;23;20565;-46
2023/08/01 03:27:55;;;;;;;12.45;2.80;;;;;;;;;;6155850;23;20121;-43
2023/08/01 03:30:24;;;;;;;10.57;2.30;;;;;;;;;;6155513;23;20017;-45
2023/08/01 03:32:52;;;;;;;14.32;3.08;;;;;;;;;;6131094;23;20017;-45
2023/08/01 03:35:20;;;;;;;11.07;2.20;;;;;;;;;;6158505;23;20020;-44
2023/08/01 03:37:48;;;;;;;10.77;2.72;;;;;;;;;;6162507;23;20381;-44
2023/08/01 03:40:17;;;;;;;12.18;2.38;;;;;;;;;;6158531;23;20013;-44
2023/08/01 03:42:45;;;;;;;15.30;3.20;;;;;;;;;;6157397;23;20012;-45
2023/08/01 03:45:13;;;;;;;12.13;2.78;;;;;;;;;;6159165;23;20087;-44
2023/08/01 03:47:41;;;;;;;15.48;2.53;;;;;;;;;;6160513;23;20019;-45
2023/08/01 03:50:09;;;;;;;9.43;2.30;;;;;;;;;;6165033;23;20080;-45
2023/08/01 03:52:36;;;;;;;10.93;2.25;;;;;;;;;;6150645;23;20073;-43
2023/08/01 03:55:06;;;;;;;10.37;2.40;;;;;;;;;;6159379;23;20334;-45
2023/08/01 03:57:35;;;;;;;8.82;2.28;;;;;;;;;;6164763;23;20052;-45
2023/08/01 04:00:03;;;;;;;10.30;1.80;;;;;;;;;;6153946;23;20028;-43
2023/08/01 04:02:31;;;;;;;10.48;2.25;;;;;;;;;;6165089;23;20013;-44
2023/08/01 04:04:58;;;;;;;12.25;2.53;;;;;;;;;;6152860;23;20025;-43
2023/08/01 04:07:26;;;;;;;12.57;2.00;;;;;;;;;;6152170;23;20459;-44
2023/08/01 04:09:54;;;;;;;8.77;1.75;;;;;;;;;;6165533;23;20017;-44
2023/08/01 04:12:22;;;;;;;8.82;2.33;;;;;;;;;;6152845;23;20024;-44
2023/08/01 04:14:51;;;;;;;8.65;1.70;;;;;;;;;;6160699;23;20040;-43
2023/08/01 04:17:19;;;;;;;13.50;3.25;;;;;;;;;;6154250;23;20346;-43
2023/08/01 04:19:46;;;;;;;8.83;2.23;;;;;;;;;;6165098;23;20025;-43
2023/08/01 04:22:14;;;;;;;11.45;1.80;;;;;;;;;;6153321;23;20027;-43
2023/08/01 04:24:42;;;;;;;9.43;2.03;;;;;;;;;;6169572;23;20503;-44
2023/08/01 04:27:10;;;;;;;14.93;2.20;;;;;;;;;;6142693;23;20432;-43
2023/08/01 04:29:37;;;;;;;9.80;1.95;;;;;;;;;;6168822;23;20056;-43
2023/08/01 04:32:07;;;;;;;11.30;2.23;;;;;;;;;;6152635;23;20023;-44
2023/08/01 04:34:35;;;;;;;12.20;2.90;;;;;;;;;;6166184;23;20019;-43
2023/08/01 04:37:03;;;;;;;11.88;2.30;;;;;;;;;;6152828;23;20021;-44
2023/08/01 04:39:31;;;;;;;13.55;2.50;;;;;;;;;;6165990;23;20013;-44
2023/08/01 04:41:58;;;;;;;10.07;2.10;;;;;;;;;;6151455;23;20192;-43
2023/08/01 04:44:29;;;;;;;11.37;2.27;;;;;;;;;;6162851;23;20024;-43
2023/08/01 04:46:57;;;;;;;11.55;2.25;;;;;;;;;;6164241;23;20017;-46
2023/08/01 04:49:26;;;;;;;11.60;2.40;;;;;;;;;;6151918;23;20017;-43
2023/08/01 04:51:53;;;;;;;9.40;2.00;;;;;;;;;;6154275;23;20080;-44
2023/08/01 04:54:22;;;;;;;10.13;2.30;;;;;;;;;;6149789;23;20040;-44
2023/08/01 04:56:50;;;;;;;13.17;2.27;;;;;;;;;;6154580;23;20025;-45
2023/08/01 04:59:18;;;;;;;11.18;2.70;;;;;;;;;;6152654;23;20385;-51
2023/08/01 05:01:45;;;;;;;15.57;3.20;;;;;;;;;;6160349;23;20041;-46
2023/08/01 05:04:13;;;;;;;13.18;2.90;;;;;;;;;;6138747;23;20204;-43
2023/08/01 05:06:42;;;;;;;7.43;2.05;;;;;;;;;;6164843;23;20017;-44
2023/08/01 05:09:10;;;;;;;11.57;2.60;;;;;;;;;;6153222;23;20103;-43
2023/08/01 05:11:38;;;;;;;12.93;2.08;;;;;;;;;;6157352;23;20023;-48
2023/08/01 05:14:05;;;;;;;16.20;2.75;;;;;;;;;;6142965;23;20559;-48
2023/08/01 05:16:33;;;;;;;15.45;2.65;;;;;;;;;;6161833;23;20100;-49
2023/08/01 05:19:01;;;;;;;11.45;2.75;;;;;;;;;;6149056;23;20056;-46
2023/08/01 05:21:29;;;;;;;12.17;2.20;;;;;;;;;;6154907;23;20021;-44
2023/08/01 05:23:58;;;;;;;12.57;2.53;;;;;;;;;;6155271;23;20485;-44
2023/08/01 05:26:26;;;;;;;10.23;2.33;;;;;;;;;;6155252;23;20013;-43
2023/08/01 05:28:53;;;;;;;14.98;3.03;;;;;;;;;;6152627;23;20032;-44
2023/08/01 05:31:21;;;;;;;9.90;1.77;;;;;;;;;;6156636;23;20043;-45
2023/08/01 05:33:49;;;;;;;8.03;1.73;;;;;;;;;;6154433;23;20017;-43
2023/08/01 05:36:17;;;;;;;11.23;1.80;;;;;;;;;;6162476;23;20388;-43
2023/08/01 05:38:44;;;;;;;11.30;2.00;;;;;;;;;;6144280;23;20124;-44
2023/08/01 05:41:14;;;;;;;8.70;1.50;;;;;;;;;;6158200;23;20040;-45
2023/08/01 05:43:41;;;;;;;9.73;2.30;;;;;;;;;;6153852;23;20016;-44
2023/08/01 05:46:10;;;;;;;10.03;1.90;;;;;;;;;;6170457;23;20025;-43
2023/08/01 05:48:37;;;;;;;9.45;2.22;;;;;;;;;;6153424;23;20017;-43
2023/08/01 05:51:05;;;;;;;7.45;1.23;;;;;;;;;;6151283;23;20031;-43
2023/08/01 05:53:33;;;;;;;8.90;1.60;;;;;;;;;;6157908;23;20119;-43
2023/08/01 05:56:00;;;;;;;8.95;1.25;;;;;;;;;;6152273;23;20447;-44
2023/08/01 05:58:31;;;;;;;11.20;1.13;;;;;;;;;;6158017;23;20033;-43
2023/08/01 06:00:59;;;;;;;6.55;1.20;;;;;;;;;;6148993;23;20017;-43
2023/08/01 06:03:26;;;;;;;9.70;2.35;;;;;;;;;;6162331;23;20040;-43
2023/08/01 06:05:54;;;;;;;7.45;1.45;;;;;;;;;;6154073;23;20570;-43
2023/08/01 06:08:22;;;;;;;9.93;1.60;;;;;;;;;;6157893;23;20047;-45
2023/08/01 06:10:50;;;;;;;6.53;1.80;;;;;;;;;;6156114;23;20017;-43
2023/08/01 06:13:18;;;;;;;9.57;1.83;;;;;;;;;;6159095;23;20511;-44
2023/08/01 06:15:50;;;;;;;10.40;1.80;;;;;;;;;;6154421;23;20348;-43
2023/08/01 06:18:19;;;;;;;9.00;2.00;;;;;;;;;;6142129;23;20021;-43
2023/08/01 06:20:47;;;;;;;11.52;2.42;;;;;;;;;;6161398;23;20469;-43
2023/08/01 06:23:14;;;;;;;8.90;1.40;;;;;;;;;;6148844;23;20013;-43
2023/08/01 06:25:42;;;;;;;8.77;1.40;;;;;;;;;;6164081;23;20021;-44
2023/08/01 06:28:10;;;;;;;9.27;1.40;;;;;;;;;;6144946;23;20047;-43
2023/08/01 06:30:38;;;;;;;11.20;1.30;;;;;;;;;;6156698;23;20022;-47
2023/08/01 06:33:08;;;;;;;9.50;1.20;;;;;;;;;;6157061;23;20100;-43
2023/08/01 06:35:37;;;;;;;7.80;1.30;;;;;;;;;;6162369;23;20091;-44
2023/08/01 06:38:04;;;;;;;8.88;1.55;;;;;;;;;;6145648;23;20052;-43
2023/08/01 06:40:32;;;;;;;11.70;2.22;;;;;;;;;;6155546;23;20088;-44
2023/08/01 06:43:00;;;;;;;9.60;1.90;;;;;;;;;;6157490;23;20630;-43
2023/08/01 06:45:27;;;;;;;7.53;1.60;;;;;;;;;;6150854;23;20017;-43
2023/08/01 06:47:58;;;;;;;8.70;1.40;;;;;;;;;;6146855;23;20025;-45
2023/08/01 06:50:27;;;;;;;7.80;1.33;;;;;;;;;;6161618;23;20023;-45
2023/08/01 06:52:55;;;;;;;7.18;1.40;;;;;;;;;;6138931;23;20020;-45
2023/08/01 06:55:22;;;;;;;8.40;1.25;;;;;;;;;;6162587;23;20024;-43
2023/08/01 06:57:50;;;;;;;8.70;1.33;;;;;;;;;;6141785;23;20028;-44
2023/08/01 07:00:18;;;;;;;9.87;1.60;;;;;;;;;;6160093;23;20031;-45
2023/08/01 07:02:46;;;;;;;15.05;1.45;;;;;;;;;;6148796;23;20319;-43
2023/08/01 07:05:14;;;;;;;8.73;1.40;;;;;;;;;;6159234;23;20092;-43
2023/08/01 07:07:44;;;;;;;7.07;1.33;;;;;;;;;;6152972;23;20124;-46
2023/08/01 07:10:11;;;;;;;9.30;1.35;;;;;;;;;;6155187;23;20067;-44
2023/08/01 07:12:39;;;;;;;8.30;1.93;;;;;;;;;;6153730;23;20020;-44
2023/08/01 07:15:08;;;;;;;8.68;1.30;;;;;;;;;;6152896;23;20021;-45
2023/08/01 07:17:36;;;;;;;9.05;1.20;;;;;;;;;;6152028;23;20021;-44
2023/08/01 07:20:04;;;;;;;8.68;1.15;;;;;;;;;;6155588;23;20716;-47
2023/08/01 07:22:32;;;;;;;8.95;1.25;;;;;;;;;;6156772;23;20092;-43
2023/08/01 07:25:02;;;;;;;5.63;1.23;;;;;;;;;;6147880;23;20075;-43
2023/08/01 07:27:29;;;;;;;8.02;1.45;;;;;;;;;;6157704;23;20021;-43
2023/08/01 07:29:57;;;;;;;9.15;1.52;;;;;;;;;;6148612;23;20013;-43
2023/08/01 07:32:25;;;;;;;4.57;0.90;;;;;;;;;;6153833;23;20726;-44
2023/08/01 07:34:53;;;;;;;6.05;0.93;;;;;;;;;;6151176;23;20017;-45
2023/08/01 07:37:20;;;;;;;7.13;1.43;;;;;;;;;;6154698;23;20341;-42
2023/08/01 07:39:50;;;;;;;6.25;1.23;;;;;;;;;;6145986;23;20021;-43
2023/08/01 07:42:19;;;;;;;6.43;1.40;;;;;;;;;;6158580;23;20025;-44
2023/08/01 07:44:48;;;;;;;8.50;1.30;;;;;;;;;;6141669;23;20021;-43
2023/08/01 07:47:16;;;;;;;8.60;1.08;;;;;;;;;;6155363;23;20013;-45
2023/08/01 07:49:44;;;;;;;7.13;1.10;;;;;;;;;;6151110;23;20255;-43
2023/08/01 07:52:11;;;;;;;4.30;0.75;;;;;;;;;;6156212;23;20017;-43
2023/08/01 07:54:39;;;;;;;9.48;1.50;;;;;;;;;;6151429;23;20049;-46
2023/08/01 07:57:07;;;;;;;8.10;1.10;;;;;;;;;;6159897;23;20017;-43
2023/08/01 07:59:36;;;;;;;7.65;1.08;;;;;;;;;;6141738;23;20017;-43
2023/08/01 08:02:04;;;;;;;7.33;1.37;;;;;;;;;;6153987;23;20357;-43
2023/08/01 08:04:31;;;;;;;6.10;0.90;;;;;;;;;;6151402;23;20017;-43
2023/08/01 08:07:16;;;;;;;7.47;1.30;;;;;;;;;;6144351;23;20421;-44
2023/08/01 08:09:44;;;;;;;7.35;0.80;;;;;;;;;;6151970;23;20090;-43
2023/08/01 08:12:12;;;;;;;9.07;1.35;;;;;;;;;;6145851;23;20021;-44
2023/08/01 08:15:02;;;;;;;11.33;1.27;;;;;;;;;;6149481;23;20048;-44
2023/08/01 08:17:30;;;;;;;4.18;0.63;;;;;;;;;;6140842;23;20025;-44
2023/08/01 08:19:58;;;;;;;4.70;0.85;;;;;;;;;;6148556;23;20097;-44
2023/08/01 08:22:27;;;;;;;8.30;1.40;;;;;;;;;;6140885;23;20359;-43
2023/08/01 08:24:54;;;;;;;5.63;0.88;;;;;;;;;;6145781;23;20013;-43
2023/08/01 08:27:22;;;;;;;6.40;1.20;;;;;;;;;;6127245;23;20020;-44
2023/08/01 08:29:50;;;;;;;7.72;1.15;;;;;;;;;;6140213;23;20017;-43
2023/08/01 08:32:22;;;;;;;5.85;1.10;;;;;;;;;;6129440;23;20355;-43
2023/08/01 08:34:50;;;;;;;6.35;1.33;;;;;;;;;;6137865;23;20506;-43
2023/08/01 08:37:18;;;;;;;6.53;1.40;;;;;;;;;;6137934;23;20051;-45
2023/08/01 08:39:47;;;;;;;5.13;0.70;;;;;;;;;;6131084;23;20029;-43
2023/08/01 08:42:18;;;;;;;6.50;1.10;;;;;;;;;;6137470;23;20095;-43
2023/08/01 08:44:47;;;;;;;4.13;0.70;;;;;;;;;;6145830;23;20020;-43
2023/08/01 08:47:17;;;;;;;4.07;0.98;;;;;;;;;;6160275;23;20487;-43
2023/08/01 08:49:46;;;;;;;4.10;0.90;;;;;;;;;;6146518;23;20507;-44
2023/08/01 08:52:14;;;;;;;4.97;0.70;;;;;;;;;;6158653;23;20023;-43
2023/08/01 08:54:43;;;;;;;4.15;0.63;;;;;;;;;;6148240;23;20013;-42
2023/08/01 08:57:11;;;;;;;7.13;0.70;;;;;;;;;;6159274;23;20024;-43
2023/08/01 08:59:39;;;;;;;2.70;0.50;;;;;;;;;;6150154;23;20021;-44
2023/08/01 09:02:07;;;;;;;5.07;0.70;;;;;;;;;;6156550;23;20051;-45
2023/08/01 09:04:34;;;;;;;3.37;0.60;;;;;;;;;;6151350;23;20025;-43
2023/08/01 09:07:06;;;;;;;5.75;0.60;;;;;;;;;;6158226;23;20024;-44
2023/08/01 09:09:35;;;;;;;4.30;1.00;;;;;;;;;;6160218;23;20021;-42
2023/08/01 09:12:03;;;;;;;3.88;0.60;;;;;;;;;;6152534;23;20027;-45
2023/08/01 09:14:33;;;;;;;6.82;0.80;;;;;;;;;;6160481;23;20017;-44
2023/08/01 09:17:06;;;;;;;3.87;0.67;;;;;;;;;;6153573;23;20017;-43
2023/08/01 09:19:35;;;;;;;5.45;0.80;;;;;;;;;;6161624;23;20031;-48
2023/08/01 09:22:10;;;;;;;5.78;1.02;;;;;;;;;;6151070;23;20017;-43
2023/08/01 09:24:39;;;;;;;5.13;0.88;;;;;;;;;;6154276;23;20021;-44
2023/08/01 09:27:08;;;;;;;4.18;1.00;;;;;;;;;;6149827;23;20017;-43
2023/08/01 09:29:36;;;;;;;5.87;1.20;;;;;;;;;;6144478;23;20013;-43
2023/08/01 09:32:12;;;;;;;7.75;0.80;;;;;;;;;;6164313;23;20355;-43
2023/08/01 09:34:39;;;;;;;8.27;1.33;;;;;;;;;;6158922;23;20032;-43
2023/08/01 09:37:09;;;;;;;5.38;1.00;;;;;;;;;;6151184;23;20041;-43
2023/08/01 09:39:37;;;;;;;5.82;1.45;;;;;;;;;;6157546;23;20024;-44
2023/08/01 09:42:05;;;;;;;5.87;1.20;;;;;;;;;;6156345;23;20025;-45
2023/08/01 09:44:36;;;;;;;4.57;1.08;;;;;;;;;;6157272;23;20048;-46
2023/08/01 09:47:04;;;;;;;5.88;0.90;;;;;;;;;;6154519;23;20213;-43
2023/08/01 09:49:32;;;;;;;7.38;1.23;;;;;;;;;;6152783;23;20023;-44
2023/08/01 09:52:01;;;;;;;5.63;1.05;;;;;;;;;;6155969;23;20382;-46
2023/08/01 09:54:30;;;;;;;6.03;1.40;;;;;;;;;;6144995;23;20025;-43
2023/08/01 09:56:58;;;;;;;6.75;1.10;;;;;;;;;;6157170;23;20490;-46
2023/08/01 09:59:27;;;;;;;5.50;1.40;;;;;;;;;;6147996;23;20028;-43
2023/08/01 10:01:55;;;;;;;3.78;0.60;;;;;;;;;;6162553;23;20021;-43
2023/08/01 10:04:25;;;;;;;5.53;1.20;;;;;;;;;;6150294;23;20021;-43
2023/08/01 10:06:57;;;;;;;4.47;0.80;;;;;;;;;;6163739;23;20016;-43
2023/08/01 10:09:26;;;;;;;10.50;1.48;;;;;;;;;;6159922;23;20752;-44
2023/08/01 10:11:57;;;;;;;5.20;0.82;;;;;;;;;;6147685;23;20013;-43
2023/08/01 10:14:26;;;;;;;6.60;1.58;;;;;;;;;;6158891;23;20031;-43
2023/08/01 10:16:54;;;;;;;5.93;1.10;;;;;;;;;;6150694;23;20052;-43
2023/08/01 10:19:22;;;;;;;10.37;1.43;;;;;;;;;;6157970;23;20021;-44
2023/08/01 10:21:50;;;;;;;5.63;0.70;;;;;;;;;;6142181;23;20041;-45
2023/08/01 10:24:23;;;;;;;4.93;1.23;;;;;;;;;;6158598;23;20444;-44
2023/08/01 10:26:51;;;;;;;6.03;1.05;;;;;;;;;;6142791;23;20096;-43
2023/08/01 10:29:20;;;;;;;5.18;1.20;;;;;;;;;;6158671;23;20031;-43
2023/08/01 10:31:51;;;;;;;4.63;1.00;;;;;;;;;;6153860;23;20017;-44
2023/08/01 10:34:20;;;;;;;5.53;0.95;;;;;;;;;;6152923;23;20048;-43
2023/08/01 10:36:54;;;;;;;5.03;0.98;;;;;;;;;;6143880;23;20438;-47
2023/08/01 10:39:22;;;;;;;5.90;1.17;;;;;;;;;;6162365;23;20044;-45
2023/08/01 10:41:57;;;;;;;6.63;1.00;;;;;;;;;;6144558;23;20020;-43
2023/08/01 10:44:27;;;;;;;6.87;1.27;;;;;;;;;;6159704;23;20017;-45
2023/08/01 10:46:56;;;;;;;5.18;0.80;;;;;;;;;;6155132;23;20330;-43
2023/08/01 10:49:34;;;;;;;6.57;0.90;;;;;;;;;;6143430;23;20021;-43
2023/08/01 10:52:02;;;;;;;7.15;1.50;;;;;;;;;;6154235;23;20018;-45
2023/08/01 10:54:29;;;;;;;4.18;0.80;;;;;;;;;;6148565;23;20265;-45
2023/08/01 10:56:58;;;;;;;5.20;1.00;;;;;;;;;;6162724;23;20427;-45
2023/08/01 10:59:28;;;;;;;5.07;1.05;;;;;;;;;;6142250;23;20024;-44
2023/08/01 11:02:01;;;;;;;6.53;1.80;;;;;;;;;;6144564;23;20024;-43
2023/08/01 11:04:29;;;;;;;5.70;1.23;;;;;;;;;;6133545;23;20024;-44
2023/08/01 11:06:57;;;;;;;4.63;1.10;;;;;;;;;;6131397;23;20020;-44
2023/08/01 11:09:25;;;;;;;7.33;1.43;;;;;;;;;;6143342;23;20021;-43
2023/08/01 11:11:55;;;;;;;5.93;1.23;;;;;;;;;;6134066;23;20017;-44
2023/08/01 11:14:23;;;;;;;4.25;0.90;;;;;;;;;;6141316;23;20017;-44
2023/08/01 11:16:54;;;;;;;4.68;1.23;;;;;;;;;;6125471;23;20344;-43
2023/08/01 11:19:24;;;;;;;7.80;1.10;;;;;;;;;;6145436;23;20486;-43
2023/08/01 11:21:52;;;;;;;5.77;1.00;;;;;;;;;;6135553;23;20017;-43
2023/08/01 11:24:21;;;;;;;5.13;1.13;;;;;;;;;;6144299;23;20021;-43
2023/08/01 11:26:50;;;;;;;5.35;1.20;;;;;;;;;;6119065;23;20020;-44
2023/08/01 11:29:18;;;;;;;5.90;1.15;;;;;;;;;;6144673;23;20041;-43
2023/08/01 11:31:54;;;;;;;6.18;1.35;;;;;;;;;;6133331;23;20021;-44
2023/08/01 11:34:22;;;;;;;5.03;1.20;;;;;;;;;;6138798;23;20016;-43
2023/08/01 11:36:50;;;;;;;4.72;1.10;;;;;;;;;;6121438;23;20013;-43
2023/08/01 11:39:18;;;;;;;4.78;1.45;;;;;;;;;;6139630;23;20560;-43
2023/08/01 11:41:46;;;;;;;6.43;1.52;;;;;;;;;;6125325;23;20627;-43
2023/08/01 11:44:14;;;;;;;6.63;1.50;;;;;;;;;;6140922;23;20060;-44
2023/08/01 11:46:42;;;;;;;7.13;1.30;;;;;;;;;;6122343;23;20223;-45
2023/08/01 11:49:28;;;;;;;6.22;1.80;;;;;;;;;;6137092;23;20016;-43
2023/08/01 11:52:03;;;;;;;4.70;1.38;;;;;;;;;;6138813;23;20017;-43
2023/08/01 11:54:30;;;;;;;5.32;1.10;;;;;;;;;;6132847;23;20013;-43
2023/08/01 11:57:01;;;;;;;5.40;0.82;;;;;;;;;;6136083;23;20021;-45
2023/08/01 11:59:29;;;;;;;7.93;1.10;;;;;;;;;;6134089;23;20020;-43
2023/08/01 12:01:56;;;;;;;6.05;1.52;;;;;;;;;;6140710;23;20049;-45
2023/08/01 12:04:25;;;;;;;5.20;1.08;;;;;;;;;;6136258;23;20723;-46
2023/08/01 12:06:56;;;;;;;6.40;1.08;;;;;;;;;;6142481;23;20444;-43
2023/08/01 12:09:25;;;;;;;5.82;1.02;;;;;;;;;;6145312;23;20021;-43
2023/08/01 12:11:59;;;;;;;6.63;1.20;;;;;;;;;;6130966;23;20126;-43
2023/08/01 12:14:27;;;;;;;3.90;1.00;;;;;;;;;;6143512;23;20017;-44
2023/08/01 12:16:55;;;;;;;6.40;1.20;;;;;;;;;;6126121;23;20576;-43
2023/08/01 12:19:23;;;;;;;5.28;0.80;;;;;;;;;;6141254;23;20051;-43
2023/08/01 12:21:51;;;;;;;4.85;0.90;;;;;;;;;;6133284;23;20017;-45
2023/08/01 12:24:20;;;;;;;5.17;1.00;;;;;;;;;;6138434;23;20533;-43
2023/08/01 12:26:48;;;;;;;5.57;1.15;;;;;;;;;;6112719;23;20043;-44
2023/08/01 12:29:16;;;;;;;6.97;0.80;;;;;;;;;;6141764;23;20017;-44
2023/08/01 12:31:47;;;;;;;3.88;0.90;;;;;;;;;;6138865;23;20021;-43
2023/08/01 12:34:14;;;;;;;5.07;0.88;;;;;;;;;;6145268;23;20470;-43
2023/08/01 12:36:42;;;;;;;5.73;1.20;;;;;;;;;;6126587;23;20288;-44
2023/08/01 12:39:10;;;;;;;4.75;1.10;;;;;;;;;;6145300;23;20199;-43
2023/08/01 12:41:40;;;;;;;6.35;1.40;;;;;;;;;;6136214;23;20443;-48
2023/08/01 12:44:08;;;;;;;6.35;1.10;;;;;;;;;;6144357;23;20027;-44
2023/08/01 12:46:36;;;;;;;5.93;1.08;;;;;;;;;;6130494;23;20326;-43
2023/08/01 12:49:04;;;;;;;5.70;1.13;;;;;;;;;;6141320;23;20016;-45
2023/08/01 12:51:31;;;;;;;6.97;1.20;;;;;;;;;;6136685;23;20463;-45
2023/08/01 12:53:59;;;;;;;5.90;1.27;;;;;;;;;;6142865;23;20027;-43
2023/08/01 12:56:27;;;;;;;5.88;1.40;;;;;;;;;;6130785;23;20436;-46
2023/08/01 12:58:56;;;;;;;6.20;1.40;;;;;;;;;;6149026;23;20439;-43
2023/08/01 13:01:24;;;;;;;6.17;1.40;;;;;;;;;;6139932;23;20013;-46
2023/08/01 13:03:51;;;;;;;6.63;1.45;;;;;;;;;;6146911;23;20028;-45
2023/08/01 13:06:19;;;;;;;9.63;1.55;;;;;;;;;;6137085;23;20079;-46
2023/08/01 13:08:47;;;;;;;7.43;1.42;;;;;;;;;;6118553;23;20023;-45
2023/08/01 13:11:15;;;;;;;6.05;1.40;;;;;;;;;;6139749;23;20013;-43
2023/08/01 13:13:43;;;;;;;5.87;1.27;;;;;;;;;;6138014;23;20508;-43
2023/08/01 13:16:12;;;;;;;6.45;1.30;;;;;;;;;;6139499;23;20017;-44
2023/08/01 13:18:43;;;;;;;7.05;1.05;;;;;;;;;;6131607;23;20682;-44
2023/08/01 13:21:12;;;;;;;4.68;1.50;;;;;;;;;;6137951;23;20017;-44
2023/08/01 13:23:40;;;;;;;6.72;1.40;;;;;;;;;;6133773;23;20329;-45
2023/08/01 13:26:25;;;;;;;3.90;0.90;;;;;;;;;;6129425;23;20499;-44
2023/08/01 13:28:53;;;;;;;6.82;1.60;;;;;;;;;;6139123;23;20028;-47
2023/08/01 13:31:22;;;;;;;5.28;0.93;;;;;;;;;;6139505;23;20103;-43
2023/08/01 13:33:50;;;;;;;6.45;1.58;;;;;;;;;;6137496;23;20151;-43
2023/08/01 13:36:18;;;;;;;6.43;1.25;;;;;;;;;;6138793;23;20083;-43
2023/08/01 13:38:46;;;;;;;8.13;1.10;;;;;;;;;;6153943;23;20017;-44
2023/08/01 13:41:14;;;;;;;5.25;0.98;;;;;;;;;;6156306;23;20021;-45
2023/08/01 13:43:42;;;;;;;4.65;1.30;;;;;;;;;;6151379;23;20343;-43
2023/08/01 13:46:13;;;;;;;5.97;1.50;;;;;;;;;;6151160;23;20059;-43
2023/08/01 13:48:57;;;;;;;4.45;1.10;;;;;;;;;;6150896;23;20021;-43
2023/08/01 13:51:25;;;;;;;3.57;0.87;;;;;;;;;;6153099;23;20020;-46
2023/08/01 13:53:52;;;;;;;5.55;1.20;;;;;;;;;;6156363;23;20028;-42
2023/08/01 13:56:21;;;;;;;6.63;1.17;;;;;;;;;;6145739;23;20017;-43
2023/08/01 13:58:50;;;;;;;5.28;1.00;;;;;;;;;;6155922;23;20019;-43
2023/08/01 14:01:19;;;;;;;5.60;1.08;;;;;;;;;;6155178;23;20025;-43
2023/08/01 14:03:47;;;;;;;6.17;1.00;;;;;;;;;;6156612;23;20443;-44
2023/08/01 14:06:17;;;;;;;6.35;1.30;;;;;;;;;;6157848;23;20399;-43
2023/08/01 14:08:44;;;;;;;5.03;1.13;;;;;;;;;;6153065;23;20060;-43
2023/08/01 14:11:12;;;;;;;5.70;1.38;;;;;;;;;;6156353;23;20473;-46
2023/08/01 14:13:40;;;;;;;4.07;0.80;;;;;;;;;;6157643;23;20017;-43
2023/08/01 14:16:07;;;;;;;3.80;1.10;;;;;;;;;;6154327;23;20013;-44
2023/08/01 14:18:35;;;;;;;4.65;0.90;;;;;;;;;;6158551;23;20109;-46
2023/08/01 14:21:03;;;;;;;4.00;0.80;;;;;;;;;;6153039;23;20051;-42
2023/08/01 14:23:32;;;;;;;3.63;0.77;;;;;;;;;;6149120;23;20334;-44
2023/08/01 14:26:00;;;;;;;5.50;1.00;;;;;;;;;;6126402;23;20456;-43
2023/08/01 14:28:28;;;;;;;4.90;0.90;;;;;;;;;;6162783;23;20017;-44
2023/08/01 14:30:56;;;;;;;4.40;1.00;;;;;;;;;;6148628;23;20451;-43
2023/08/01 14:33:25;;;;;;;3.15;0.88;;;;;;;;;;6158035;23;20435;-43
2023/08/01 14:35:54;;;;;;;4.75;1.27;;;;;;;;;;6161979;23;20044;-43
2023/08/01 14:38:21;;;;;;;6.35;1.08;;;;;;;;;;6145483;23;20535;-43
2023/08/01 14:40:50;;;;;;;6.93;1.03;;;;;;;;;;6154731;23;20017;-46
2023/08/01 14:43:35;;;;;;;5.72;1.20;;;;;;;;;;6150815;23;20013;-48
2023/08/01 14:46:03;;;;;;;5.20;1.00;;;;;;;;;;6152739;23;20093;-45